createdAt,value
2022-10-22T00:54:57.179Z,19.90
2022-10-22T01:12:45.753Z,19.80
2022-10-22T01:15:31.292Z,19.70
2022-10-22T01:25:58.821Z,19.60
2022-10-22T01:48:42.857Z,19.30
2022-10-22T02:19:13.910Z,18.90
2022-10-22T02:31:48.742Z,18.90
2022-10-22T04:10:21.862Z,19.00
2022-10-22T04:37:22.778Z,19.10
2022-10-22T05:31:34.268Z,18.70
2022-10-22T06:08:52.381Z,18.70
2022-10-22T07:05:58.941Z,18.70
2022-10-22T07:35:34.996Z,18.50
2022-10-22T07:40:29.114Z,18.60
2022-10-22T07:45:23.258Z,18.60
2022-10-22T08:02:46.308Z,18.60
2022-10-22T08:05:13.531Z,18.60
2022-10-22T08:07:40.922Z,18.60
2022-10-22T08:10:08.932Z,18.60
2022-10-22T08:12:36.383Z,18.60
2022-10-22T08:15:03.755Z,18.70
2022-10-22T08:24:53.448Z,18.80
2022-10-22T08:32:14.748Z,18.90
2022-10-22T08:42:42.197Z,19.00
2022-10-22T08:45:26.506Z,19.10
2022-10-22T08:48:21.406Z,19.00
2022-10-22T08:50:50.877Z,19.20
2022-10-22T08:53:21.217Z,19.20
2022-10-22T08:58:43.322Z,19.30
2022-10-22T09:01:46.214Z,19.40
2022-10-22T09:04:28.883Z,19.30
2022-10-22T09:06:58.417Z,19.40
2022-10-22T09:09:31.110Z,19.40
2022-10-22T09:12:00.385Z,19.50
2022-10-22T09:14:27.540Z,19.50
2022-10-22T09:17:13.097Z,19.50
2022-10-22T09:22:44.702Z,19.60
2022-10-22T09:25:20.846Z,19.50
2022-10-22T09:27:49.088Z,19.60
2022-10-22T09:30:22.071Z,19.70
2022-10-22T09:33:11.964Z,19.70
2022-10-22T09:35:50.877Z,19.70
2022-10-22T09:38:21.844Z,19.80
2022-10-22T09:40:51.945Z,19.80
2022-10-22T09:43:19.065Z,19.80
2022-10-22T09:45:46.662Z,19.90
2022-10-22T09:48:26.395Z,19.90
2022-10-22T09:51:04.498Z,19.90
2022-10-22T09:53:37.835Z,20.00
2022-10-22T09:56:25.231Z,20.00
2022-10-22T10:01:23.866Z,20.10
2022-10-22T10:06:22.999Z,20.20
2022-10-22T10:11:29.422Z,20.30
2022-10-22T10:14:41.317Z,20.40
2022-10-22T10:17:15.859Z,20.40
2022-10-22T10:20:03.772Z,20.50
2022-10-22T10:22:58.531Z,20.50
2022-10-22T10:25:41.965Z,20.50
2022-10-22T10:28:26.356Z,20.60
2022-10-22T10:31:11.287Z,20.60
2022-10-22T10:34:04.279Z,20.60
2022-10-22T10:39:08.975Z,20.70
2022-10-22T10:41:58.749Z,20.70
2022-10-22T10:44:54.590Z,20.80
2022-10-22T10:47:42.855Z,20.70
2022-10-22T10:50:41.319Z,20.90
2022-10-22T10:55:48.659Z,21.10
2022-10-22T10:58:38.258Z,21.10
2022-10-22T11:01:42.988Z,21.20
2022-10-22T11:04:34.457Z,21.30
2022-10-22T11:07:11.735Z,21.30
2022-10-22T11:09:56.190Z,21.40
2022-10-22T11:12:31.438Z,21.40
2022-10-22T11:15:07.720Z,21.40
2022-10-22T11:17:42.773Z,21.40
2022-10-22T11:20:35.831Z,21.50
2022-10-22T11:23:19.538Z,21.50
2022-10-22T11:25:49.857Z,21.50
2022-10-22T11:28:39.969Z,21.60
2022-10-22T11:31:17.858Z,21.60
2022-10-22T11:34:35.549Z,21.70
2022-10-22T11:37:04.849Z,21.80
2022-10-22T11:39:41.262Z,21.80
2022-10-22T11:42:16.089Z,21.90
2022-10-22T11:45:03.048Z,22.00
2022-10-22T11:47:35.703Z,22.10
2022-10-22T11:50:22.914Z,22.20
2022-10-22T11:53:01.203Z,22.20
2022-10-22T11:55:45.417Z,22.30
2022-10-22T11:58:39.168Z,22.30
2022-10-22T12:01:09.107Z,22.30
2022-10-22T12:06:15.631Z,22.40
2022-10-22T12:08:54.788Z,22.40
2022-10-22T12:14:15.511Z,22.40
2022-10-22T12:17:02.495Z,22.50
2022-10-22T12:19:37.208Z,22.50
2022-10-22T12:22:06.767Z,22.60
2022-10-22T12:24:44.645Z,22.60
2022-10-22T12:27:37.072Z,22.70
2022-10-22T12:30:17.576Z,22.90
2022-10-22T12:32:44.992Z,23.10
2022-10-22T12:35:18.121Z,23.40
2022-10-22T12:40:24.206Z,24.10
2022-10-22T12:43:00.339Z,24.50
2022-10-22T12:45:33.776Z,24.80
2022-10-22T12:48:06.416Z,25.20
2022-10-22T12:50:41.326Z,25.50
2022-10-22T12:53:25.487Z,25.70
2022-10-22T12:55:54.806Z,25.80
2022-10-22T12:58:27.598Z,25.90
2022-10-22T13:01:02.163Z,25.90
2022-10-22T13:03:49.935Z,25.80
2022-10-22T13:06:19.822Z,25.70
2022-10-22T13:09:01.478Z,25.60
2022-10-22T13:11:39.868Z,25.50
2022-10-22T13:14:26.022Z,25.40
2022-10-22T13:17:11.458Z,25.30
2022-10-22T13:19:53.239Z,25.20
2022-10-22T13:22:22.845Z,25.10
2022-10-22T13:24:51.312Z,25.00
2022-10-22T13:27:18.369Z,24.80
2022-10-22T13:32:27.921Z,24.60
2022-10-22T13:34:56.672Z,24.40
2022-10-22T13:37:24.111Z,24.30
2022-10-22T13:39:50.957Z,24.20
2022-10-22T13:44:45.785Z,24.10
2022-10-22T13:47:28.367Z,24.10
2022-10-22T13:50:15.828Z,24.10
2022-10-22T13:52:50.389Z,24.10
2022-10-22T13:55:20.305Z,24.00
2022-10-22T13:57:47.654Z,24.00
2022-10-22T14:00:18.115Z,24.00
2022-10-22T14:02:48.806Z,23.90
2022-10-22T14:05:17.729Z,23.90
2022-10-22T14:07:45.225Z,23.90
2022-10-22T14:10:21.108Z,24.00
2022-10-22T14:12:52.380Z,24.00
2022-10-22T14:15:24.055Z,24.20
2022-10-22T14:17:56.357Z,24.30
2022-10-22T14:20:26.313Z,24.30
2022-10-22T14:25:23.747Z,24.40
2022-10-22T14:30:20.603Z,24.30
2022-10-22T14:35:18.293Z,24.20
2022-10-22T14:40:15.423Z,24.10
2022-10-22T14:42:45.079Z,24.00
2022-10-22T14:45:20.916Z,23.90
2022-10-22T14:47:48.771Z,23.90
2022-10-22T14:50:15.851Z,23.70
2022-10-22T14:55:12.485Z,23.80
2022-10-22T14:57:39.963Z,23.80
2022-10-22T15:00:10.706Z,23.80
2022-10-22T15:05:05.484Z,23.80
2022-10-22T15:07:32.745Z,23.90
2022-10-22T15:09:59.616Z,23.90
2022-10-22T15:12:26.560Z,24.00
2022-10-22T15:19:47.760Z,24.50
2022-10-22T15:24:45.239Z,24.90
2022-10-22T15:27:14.981Z,25.10
2022-10-22T15:29:42.722Z,25.30
2022-10-22T15:32:13.476Z,25.60
2022-10-22T15:34:40.555Z,25.70
2022-10-22T15:37:14.028Z,25.90
2022-10-22T15:39:41.891Z,26.00
2022-10-22T15:42:09.872Z,26.10
2022-10-22T15:47:07.148Z,26.10
2022-10-22T15:49:36.666Z,26.10
2022-10-22T15:52:04.846Z,26.00
2022-10-22T15:54:31.972Z,25.90
2022-10-22T15:57:02.276Z,25.80
2022-10-22T15:59:29.901Z,25.70
2022-10-22T16:01:56.774Z,25.60
2022-10-22T16:06:53.266Z,25.30
2022-10-22T16:09:24.837Z,25.10
2022-10-22T16:14:22.351Z,24.80
2022-10-22T16:16:51.689Z,24.70
2022-10-22T16:19:20.493Z,24.50
2022-10-22T16:21:50.768Z,24.30
2022-10-22T16:24:17.980Z,24.10
2022-10-22T16:29:12.662Z,23.80
2022-10-22T16:31:40.452Z,23.70
2022-10-22T16:36:36.572Z,23.40
2022-10-22T16:39:04.958Z,23.20
2022-10-22T16:41:35.447Z,23.10
2022-10-22T16:44:05.447Z,22.90
2022-10-22T16:46:33.376Z,22.80
2022-10-22T16:51:28.485Z,22.60
2022-10-22T16:53:57.049Z,22.50
2022-10-22T16:56:25.415Z,22.30
2022-10-22T16:58:54.739Z,22.20
2022-10-22T17:01:26.324Z,22.10
2022-10-22T17:03:56.945Z,22.00
2022-10-22T17:06:25.402Z,21.90
2022-10-22T17:08:52.349Z,21.80
2022-10-22T17:11:21.743Z,21.70
2022-10-22T17:13:52.763Z,21.60
2022-10-22T17:16:22.137Z,21.50
2022-10-22T17:18:49.093Z,21.40
2022-10-22T17:21:17.320Z,21.40
2022-10-22T17:23:44.784Z,21.30
2022-10-22T17:26:17.880Z,21.20
2022-10-22T17:31:24.306Z,21.10
2022-10-22T17:33:54.913Z,21.00
2022-10-22T17:38:52.251Z,20.80
2022-10-22T17:41:24.795Z,20.80
2022-10-22T17:43:51.651Z,20.70
2022-10-22T17:46:24.037Z,20.70
2022-10-22T17:48:52.415Z,20.60
2022-10-22T17:51:20.420Z,20.60
2022-10-22T17:53:47.680Z,20.50
2022-10-22T17:56:16.653Z,20.40
2022-10-22T18:01:25.775Z,20.40
2022-10-22T18:03:54.583Z,20.30
2022-10-22T18:08:48.871Z,20.20
2022-10-22T18:11:21.641Z,20.20
2022-10-22T18:16:20.163Z,20.10
2022-10-22T18:18:48.708Z,20.10
2022-10-22T18:31:12.952Z,19.90
2022-10-22T18:36:10.606Z,19.80
2022-10-22T18:41:09.539Z,19.70
2022-10-22T18:43:36.865Z,19.70
2022-10-22T18:46:06.976Z,19.50
2022-10-22T18:48:35.541Z,19.60
2022-10-22T18:51:05.923Z,19.60
2022-10-22T18:53:33.569Z,19.50
2022-10-22T18:58:27.535Z,19.50
2022-10-22T19:03:22.112Z,19.40
2022-10-22T19:08:18.791Z,19.40
2022-10-22T19:10:47.059Z,19.40
2022-10-22T19:13:15.392Z,19.30
2022-10-22T19:18:10.032Z,19.30
2022-10-22T19:20:37.314Z,19.20
2022-10-22T19:23:04.517Z,19.20
2022-10-22T19:25:31.800Z,19.20
2022-10-22T19:27:58.636Z,19.20
2022-10-22T19:30:25.500Z,19.20
2022-10-22T19:32:53.074Z,19.20
2022-10-22T19:35:19.905Z,19.10
2022-10-22T19:37:48.442Z,19.10
2022-10-22T19:40:15.676Z,19.10
2022-10-22T19:42:44.443Z,19.00
2022-10-22T19:45:11.654Z,19.10
2022-10-22T19:47:38.492Z,19.00
2022-10-22T19:50:05.694Z,19.00
2022-10-22T19:52:33.598Z,19.00
2022-10-22T19:55:00.377Z,18.90
2022-10-22T19:57:27.141Z,18.90
2022-10-22T19:59:53.912Z,18.90
2022-10-22T20:02:20.854Z,18.90
2022-10-22T20:04:49.900Z,18.90
2022-10-22T20:07:17.026Z,18.80
2022-10-22T20:09:44.082Z,18.90
2022-10-22T20:12:10.938Z,18.90
2022-10-22T20:14:37.808Z,18.80
2022-10-22T20:17:04.668Z,18.80
2022-10-22T20:19:32.473Z,18.80
2022-10-22T20:24:26.212Z,18.80
2022-10-22T20:26:53.017Z,18.70
2022-10-22T20:29:19.839Z,18.70
2022-10-22T20:31:47.485Z,18.70
2022-10-22T20:34:14.329Z,18.70
2022-10-22T20:36:41.207Z,18.60
2022-10-22T20:39:12.547Z,18.60
2022-10-22T20:41:40.501Z,18.60
2022-10-22T20:44:11.256Z,18.60
2022-10-22T20:46:38.085Z,18.60
2022-10-22T20:49:07.734Z,18.60
2022-10-22T20:51:36.424Z,18.50
2022-10-22T20:54:04.092Z,18.50
2022-10-22T20:56:31.618Z,18.50
2022-10-22T20:59:05.419Z,18.50
2022-10-22T21:01:35.576Z,18.50
2022-10-22T21:04:02.438Z,18.50
2022-10-22T21:06:29.701Z,18.50
2022-10-22T21:08:56.605Z,18.50
2022-10-22T21:11:23.687Z,18.50
2022-10-22T21:13:51.075Z,18.50
2022-10-22T21:16:19.551Z,18.40
2022-10-22T21:18:47.213Z,18.40
2022-10-22T21:21:16.978Z,18.40
2022-10-22T21:23:43.981Z,18.40
2022-10-22T21:26:10.841Z,18.40
2022-10-22T21:28:38.043Z,18.40
2022-10-22T21:31:07.808Z,18.40
2022-10-22T21:33:38.796Z,18.40
2022-10-22T21:36:07.262Z,18.40
2022-10-22T21:38:35.099Z,18.40
2022-10-22T21:41:14.203Z,18.40
2022-10-22T21:43:42.325Z,18.30
2022-10-22T21:46:13.039Z,18.30
2022-10-22T21:48:43.178Z,18.40
2022-10-22T21:51:15.962Z,18.30
2022-10-22T21:53:43.350Z,18.30
2022-10-22T21:56:19.157Z,18.30
2022-10-22T21:58:46.533Z,18.30
2022-10-22T22:01:14.577Z,18.30
2022-10-22T22:03:50.479Z,18.20
2022-10-22T22:06:21.369Z,18.20
2022-10-22T22:08:50.078Z,18.30
2022-10-22T22:11:19.345Z,18.20
2022-10-22T22:13:47.219Z,18.20
2022-10-22T22:16:17.321Z,18.20
2022-10-22T22:18:44.188Z,18.10
2022-10-22T22:21:14.402Z,18.20
2022-10-22T22:23:43.539Z,18.20
2022-10-22T22:26:11.696Z,18.20
2022-10-22T22:28:39.048Z,18.10
2022-10-22T22:31:18.144Z,18.10
2022-10-22T22:33:45.964Z,18.10
2022-10-22T22:36:13.085Z,18.10
2022-10-22T22:38:40.323Z,18.10
2022-10-22T22:41:08.612Z,18.00
2022-10-22T22:43:36.242Z,18.00
2022-10-22T22:46:09.902Z,18.00
2022-10-22T22:48:36.910Z,18.00
2022-10-22T22:51:04.992Z,18.00
2022-10-22T22:53:33.359Z,17.90
2022-10-22T22:56:12.033Z,16.50
2022-10-22T22:58:43.015Z,17.90
2022-10-22T23:01:28.627Z,17.90
2022-10-22T23:04:01.516Z,17.90
2022-10-22T23:06:31.869Z,17.80
2022-10-22T23:08:59.297Z,17.80
2022-10-22T23:11:27.570Z,17.70
2022-10-22T23:13:57.599Z,17.70
2022-10-22T23:16:27.695Z,17.70
2022-10-22T23:18:55.712Z,17.70
2022-10-22T23:21:28.733Z,17.70
2022-10-22T23:23:58.560Z,17.70
2022-10-22T23:26:31.409Z,17.70
2022-10-22T23:29:03.447Z,17.60
2022-10-22T23:31:30.399Z,17.40
2022-10-22T23:33:57.436Z,17.50
2022-10-22T23:36:24.539Z,17.60
2022-10-22T23:38:51.445Z,17.50
2022-10-22T23:41:18.636Z,17.50
2022-10-22T23:43:45.663Z,17.50
2022-10-22T23:46:14.166Z,17.50
2022-10-22T23:48:41.271Z,17.40
2022-10-22T23:51:13.472Z,17.40
2022-10-22T23:53:41.680Z,17.40
2022-10-22T23:56:13.731Z,17.30
2022-10-22T23:58:40.719Z,17.40
